createdAt,value
2022-09-03T00:00:07.718Z,849.00
2022-09-03T00:01:07.842Z,849.00
2022-09-03T00:02:08.617Z,848.00
2022-09-03T00:03:08.148Z,847.00
2022-09-03T00:04:08.836Z,847.00
2022-09-03T00:05:09.372Z,835.00
2022-09-03T00:06:10.509Z,846.00
2022-09-03T00:07:10.729Z,852.00
2022-09-03T00:08:10.834Z,852.00
2022-09-03T00:08:19.546Z,853.00
2022-09-03T00:09:19.799Z,852.00
2022-09-03T00:10:20.026Z,853.00
2022-09-03T00:11:21.384Z,850.00
2022-09-03T00:12:21.598Z,847.00
2022-09-03T00:13:21.812Z,845.00
2022-09-03T00:14:22.677Z,844.00
2022-09-03T00:15:22.823Z,849.00
2022-09-03T00:16:22.958Z,849.00
2022-09-03T00:17:22.253Z,850.00
2022-09-03T00:18:23.529Z,852.00
2022-09-03T00:19:22.735Z,852.00
2022-09-03T00:20:24.626Z,852.00
2022-09-03T00:21:24.668Z,849.00
2022-09-03T00:22:24.726Z,852.00
2022-09-03T00:23:24.870Z,852.00
2022-09-03T00:24:25.078Z,852.00
2022-09-03T00:25:26.753Z,849.00
2022-09-03T00:26:25.266Z,852.00
2022-09-03T00:27:25.491Z,853.00
2022-09-03T00:28:26.970Z,855.00
2022-09-03T00:29:27.438Z,852.00
2022-09-03T00:29:36.574Z,849.00
2022-09-03T00:30:36.884Z,848.00
2022-09-03T00:31:37.097Z,848.00
2022-09-03T00:32:37.181Z,849.00
2022-09-03T00:33:37.558Z,847.00
2022-09-03T00:34:38.881Z,847.00
2022-09-03T00:35:39.139Z,847.00
2022-09-03T00:36:39.365Z,845.00
2022-09-03T00:37:38.574Z,848.00
2022-09-03T00:38:39.429Z,849.00
2022-09-03T00:39:40.840Z,848.00
2022-09-03T00:40:40.091Z,848.00
2022-09-03T00:41:40.280Z,849.00
2022-09-03T00:42:40.769Z,848.00
2022-09-03T00:43:42.092Z,847.00
2022-09-03T00:44:41.294Z,845.00
2022-09-03T00:45:42.329Z,834.00
2022-09-03T00:46:42.595Z,847.00
2022-09-03T00:47:41.544Z,846.00
2022-09-03T00:48:43.147Z,847.00
2022-09-03T00:49:42.231Z,847.00
2022-09-03T00:50:42.287Z,846.00
2022-09-03T00:51:43.689Z,835.00
2022-09-03T00:52:44.053Z,845.00
2022-09-03T00:53:44.698Z,845.00
2022-09-03T00:53:53.341Z,835.00
2022-09-03T00:54:53.401Z,846.00
2022-09-03T00:55:54.604Z,846.00
2022-09-03T00:56:54.841Z,848.00
2022-09-03T00:57:55.436Z,847.00
2022-09-03T00:58:55.577Z,848.00
2022-09-03T00:59:54.677Z,848.00
2022-09-03T01:00:54.789Z,852.00
2022-09-03T01:01:56.109Z,849.00
2022-09-03T01:02:55.875Z,849.00
2022-09-03T01:03:55.958Z,847.00
2022-09-03T01:04:56.608Z,845.00
2022-09-03T01:06:01.524Z,845.00
2022-09-03T01:06:56.749Z,843.00
2022-09-03T01:07:57.755Z,834.00
2022-09-03T01:08:57.867Z,845.00
2022-09-03T01:09:58.337Z,846.00
2022-09-03T01:10:58.468Z,848.00
2022-09-03T01:11:57.826Z,849.00
2022-09-03T01:12:59.050Z,849.00
2022-09-03T01:13:59.149Z,848.00
2022-09-03T01:14:59.359Z,846.00
2022-09-03T01:15:10.009Z,845.00
2022-09-03T01:16:11.731Z,846.00
2022-09-03T01:17:10.796Z,848.00
2022-09-03T01:18:12.347Z,849.00
2022-09-03T01:19:12.592Z,847.00
2022-09-03T01:20:12.725Z,847.00
2022-09-03T01:21:12.222Z,848.00
2022-09-03T01:22:13.489Z,847.00
2022-09-03T01:23:13.757Z,846.00
2022-09-03T01:24:14.717Z,847.00
2022-09-03T01:25:15.307Z,846.00
2022-09-03T01:26:14.492Z,836.00
2022-09-03T01:27:14.833Z,847.00
2022-09-03T01:28:16.069Z,846.00
2022-09-03T01:29:16.792Z,848.00
2022-09-03T01:30:17.245Z,849.00
2022-09-03T01:31:16.505Z,848.00
2022-09-03T01:32:17.084Z,847.00
2022-09-03T01:33:18.447Z,846.00
2022-09-03T01:34:18.548Z,846.00
2022-09-03T01:34:27.166Z,846.00
2022-09-03T01:35:28.323Z,848.00
2022-09-03T01:36:27.674Z,845.00
2022-09-03T01:37:27.956Z,847.00
2022-09-03T01:38:29.779Z,848.00
2022-09-03T01:39:28.879Z,847.00
2022-09-03T01:40:29.030Z,846.00
2022-09-03T01:41:30.719Z,845.00
2022-09-03T01:42:30.742Z,847.00
2022-09-03T01:43:31.133Z,846.00
2022-09-03T01:44:30.268Z,846.00
2022-09-03T01:45:30.358Z,847.00
2022-09-03T01:46:31.615Z,835.00
2022-09-03T01:47:30.869Z,834.00
2022-09-03T01:48:31.956Z,836.00
2022-09-03T01:49:32.237Z,848.00
2022-09-03T01:50:32.770Z,846.00
2022-09-03T01:51:33.205Z,842.00
2022-09-03T01:52:33.923Z,842.00
2022-09-03T01:53:33.564Z,843.00
2022-09-03T01:54:34.672Z,847.00
2022-09-03T01:55:34.892Z,847.00
2022-09-03T01:56:35.661Z,846.00
2022-09-03T01:56:44.303Z,846.00
2022-09-03T01:57:46.077Z,846.00
2022-09-03T01:58:46.313Z,845.00
2022-09-03T01:59:46.704Z,843.00
2022-09-03T02:00:45.927Z,843.00
2022-09-03T02:01:47.311Z,845.00
2022-09-03T02:02:47.094Z,842.00
2022-09-03T02:03:47.876Z,841.00
2022-09-03T02:04:49.060Z,843.00
2022-09-03T02:05:48.202Z,844.00
2022-09-03T02:06:49.858Z,843.00
2022-09-03T02:07:50.275Z,847.00
2022-09-03T02:08:50.388Z,849.00
2022-09-03T02:09:49.818Z,849.00
2022-09-03T02:10:49.877Z,847.00
2022-09-03T02:11:51.095Z,846.00
2022-09-03T02:12:50.717Z,846.00
2022-09-03T02:13:52.336Z,847.00
2022-09-03T02:14:52.445Z,845.00
2022-09-03T02:15:52.616Z,846.00
2022-09-03T02:16:51.607Z,847.00
2022-09-03T02:17:00.237Z,847.00
2022-09-03T02:18:02.067Z,847.00
2022-09-03T02:19:01.102Z,845.00
2022-09-03T02:20:02.186Z,843.00
2022-09-03T02:21:02.389Z,843.00
2022-09-03T02:22:02.628Z,842.00
2022-09-03T02:23:02.676Z,843.00
2022-09-03T02:24:02.876Z,847.00
2022-09-03T02:25:03.555Z,840.00
2022-09-03T02:26:02.611Z,846.00
2022-09-03T02:27:04.555Z,846.00
2022-09-03T02:28:04.668Z,845.00
2022-09-03T02:29:04.271Z,842.00
2022-09-03T02:30:05.645Z,844.00
2022-09-03T02:31:05.808Z,831.00
2022-09-03T02:32:05.737Z,841.00
2022-09-03T02:33:07.262Z,841.00
2022-09-03T02:34:07.591Z,841.00
2022-09-03T02:35:08.370Z,845.00
2022-09-03T02:35:17.054Z,834.00
2022-09-03T02:36:17.844Z,842.00
2022-09-03T02:37:19.146Z,841.00
2022-09-03T02:38:19.512Z,842.00
2022-09-03T02:39:18.670Z,842.00
2022-09-03T02:40:18.985Z,842.00
2022-09-03T02:41:20.442Z,842.00
2022-09-03T02:42:20.568Z,841.00
2022-09-03T02:43:20.608Z,830.00
2022-09-03T02:44:20.071Z,842.00
2022-09-03T02:45:21.759Z,842.00
2022-09-03T02:46:20.892Z,843.00
2022-09-03T02:47:20.970Z,841.00
2022-09-03T02:48:21.463Z,830.00
2022-09-03T02:49:21.494Z,840.00
2022-09-03T02:50:23.053Z,838.00
2022-09-03T02:51:23.426Z,841.00
2022-09-03T02:52:23.238Z,840.00
2022-09-03T02:53:24.380Z,840.00
2022-09-03T02:54:24.598Z,843.00
2022-09-03T02:55:24.960Z,847.00
2022-09-03T02:56:25.122Z,847.00
2022-09-03T02:57:27.519Z,846.00
2022-09-03T02:57:32.872Z,846.00
2022-09-03T02:58:34.251Z,847.00
2022-09-03T02:59:34.717Z,834.00
2022-09-03T03:00:34.820Z,843.00
2022-09-03T03:01:34.160Z,843.00
2022-09-03T03:02:34.487Z,842.00
2022-09-03T03:03:34.518Z,842.00
2022-09-03T03:04:35.708Z,831.00
2022-09-03T03:05:35.772Z,831.00
2022-09-03T03:06:36.171Z,841.00
2022-09-03T03:07:36.587Z,841.00
2022-09-03T03:08:35.791Z,841.00
2022-09-03T03:09:36.283Z,838.00
2022-09-03T03:10:38.285Z,840.00
2022-09-03T03:11:37.420Z,840.00
2022-09-03T03:12:38.478Z,838.00
2022-09-03T03:13:38.503Z,838.00
2022-09-03T03:14:38.562Z,840.00
2022-09-03T03:15:37.680Z,840.00
2022-09-03T03:16:39.071Z,838.00
2022-09-03T03:17:38.035Z,842.00
2022-09-03T03:18:39.164Z,832.00
2022-09-03T03:18:48.327Z,842.00
2022-09-03T03:19:49.839Z,843.00
2022-09-03T03:20:50.545Z,843.00
2022-09-03T03:21:51.073Z,841.00
2022-09-03T03:22:51.122Z,842.00
2022-09-03T03:23:51.382Z,842.00
2022-09-03T03:24:51.698Z,841.00
2022-09-03T03:25:51.742Z,841.00
2022-09-03T03:26:51.739Z,846.00
2022-09-03T03:27:51.820Z,847.00
2022-09-03T03:28:52.281Z,848.00
2022-09-03T03:29:52.972Z,845.00
2022-09-03T03:30:52.219Z,845.00
2022-09-03T03:31:52.280Z,842.00
2022-09-03T03:32:54.241Z,841.00
2022-09-03T03:33:54.267Z,841.00
2022-09-03T03:34:54.407Z,841.00
2022-09-03T03:35:53.578Z,842.00
2022-09-03T03:36:53.899Z,841.00
2022-09-03T03:37:55.002Z,841.00
2022-09-03T03:38:55.184Z,841.00
2022-09-03T03:39:03.771Z,840.00
2022-09-03T03:40:05.369Z,841.00
2022-09-03T03:41:04.395Z,843.00
2022-09-03T03:42:05.897Z,833.00
2022-09-03T03:43:06.175Z,832.00
2022-09-03T03:44:06.384Z,842.00
2022-09-03T03:45:06.016Z,841.00
2022-09-03T03:46:07.666Z,841.00
2022-09-03T03:47:07.225Z,840.00
2022-09-03T03:48:08.537Z,840.00
2022-09-03T03:49:07.634Z,841.00
2022-09-03T03:50:09.412Z,843.00
2022-09-03T03:51:08.791Z,845.00
2022-09-03T03:52:10.057Z,845.00
2022-09-03T03:53:10.097Z,842.00
2022-09-03T03:54:10.524Z,841.00
2022-09-03T03:55:09.641Z,838.00
2022-09-03T03:56:11.354Z,841.00
2022-09-03T03:57:10.606Z,841.00
2022-09-03T03:58:11.856Z,842.00
2022-09-03T03:59:11.863Z,843.00
2022-09-03T04:00:11.418Z,841.00
2022-09-03T04:00:20.083Z,841.00
2022-09-03T04:01:20.763Z,841.00
2022-09-03T04:02:21.177Z,842.00
2022-09-03T04:03:21.396Z,842.00
2022-09-03T04:04:22.839Z,841.00
2022-09-03T04:05:23.207Z,840.00
2022-09-03T04:06:22.444Z,840.00
2022-09-03T04:07:23.897Z,842.00
2022-09-03T04:08:24.391Z,846.00
2022-09-03T04:09:23.435Z,845.00
2022-09-03T04:10:24.955Z,847.00
2022-09-03T04:11:24.412Z,845.00
2022-09-03T04:12:24.519Z,842.00
2022-09-03T04:13:25.139Z,841.00
2022-09-03T04:14:26.815Z,841.00
2022-09-03T04:15:27.385Z,841.00
2022-09-03T04:16:27.966Z,847.00
2022-09-03T04:17:27.136Z,848.00
2022-09-03T04:18:28.761Z,845.00
2022-09-03T04:19:29.142Z,847.00
2022-09-03T04:20:29.912Z,848.00
2022-09-03T04:21:29.910Z,846.00
2022-09-03T04:22:30.461Z,846.00
2022-09-03T04:23:30.670Z,845.00
2022-09-03T04:23:39.261Z,843.00
2022-09-03T04:24:41.151Z,843.00
2022-09-03T04:25:40.591Z,842.00
2022-09-03T04:26:42.201Z,842.00
2022-09-03T04:27:42.787Z,841.00
2022-09-03T04:28:43.670Z,840.00
2022-09-03T04:29:44.120Z,841.00
2022-09-03T04:30:43.882Z,841.00
2022-09-03T04:31:44.131Z,843.00
2022-09-03T04:32:44.728Z,843.00
2022-09-03T04:33:46.527Z,842.00
2022-09-03T04:34:46.359Z,842.00
2022-09-03T04:35:47.640Z,832.00
2022-09-03T04:36:52.391Z,841.00
2022-09-03T04:37:47.675Z,841.00
2022-09-03T04:38:49.157Z,832.00
2022-09-03T04:39:49.888Z,845.00
2022-09-03T04:40:49.054Z,843.00
2022-09-03T04:41:50.708Z,842.00
2022-09-03T04:42:50.870Z,842.00
2022-09-03T04:43:51.229Z,842.00
2022-09-03T04:43:59.638Z,841.00
2022-09-03T04:45:01.568Z,842.00
2022-09-03T04:46:00.887Z,842.00
2022-09-03T04:47:01.002Z,843.00
2022-09-03T04:48:02.573Z,832.00
2022-09-03T04:49:02.862Z,841.00
2022-09-03T04:50:02.416Z,840.00
2022-09-03T04:51:03.917Z,840.00
2022-09-03T04:52:04.306Z,841.00
2022-09-03T04:53:07.815Z,841.00
2022-09-03T04:54:04.545Z,841.00
2022-09-03T04:55:05.683Z,841.00
2022-09-03T04:56:05.684Z,845.00
2022-09-03T04:57:06.093Z,845.00
2022-09-03T04:58:06.465Z,846.00
2022-09-03T04:59:06.525Z,843.00
2022-09-03T05:00:06.673Z,842.00
2022-09-03T05:01:07.303Z,843.00
2022-09-03T05:02:06.744Z,842.00
2022-09-03T05:03:07.120Z,842.00
2022-09-03T05:04:08.488Z,843.00
2022-09-03T05:04:21.143Z,842.00
2022-09-03T05:05:21.808Z,845.00
2022-09-03T05:06:21.961Z,843.00
2022-09-03T05:07:22.730Z,841.00
2022-09-03T05:08:24.515Z,841.00
2022-09-03T05:09:23.978Z,841.00
2022-09-03T05:10:25.815Z,841.00
2022-09-03T05:11:25.302Z,841.00
2022-09-03T05:12:26.404Z,840.00
2022-09-03T05:13:26.796Z,840.00
2022-09-03T05:14:27.084Z,841.00
2022-09-03T05:15:26.615Z,842.00
2022-09-03T05:16:28.075Z,843.00
2022-09-03T05:17:27.389Z,842.00
2022-09-03T05:18:28.392Z,842.00
2022-09-03T05:19:28.529Z,841.00
2022-09-03T05:20:29.179Z,840.00
2022-09-03T05:21:29.858Z,841.00
2022-09-03T05:22:29.090Z,841.00
2022-09-03T05:23:33.228Z,840.00
2022-09-03T05:24:29.813Z,843.00
2022-09-03T05:25:30.909Z,843.00
2022-09-03T05:26:31.377Z,843.00
2022-09-03T05:26:40.002Z,843.00
2022-09-03T05:27:40.366Z,842.00
2022-09-03T05:28:42.064Z,841.00
2022-09-03T05:29:41.448Z,840.00
2022-09-03T05:30:42.615Z,841.00
2022-09-03T05:31:43.243Z,841.00
2022-09-03T05:32:42.479Z,840.00
2022-09-03T05:33:44.453Z,840.00
2022-09-03T05:34:44.859Z,831.00
2022-09-03T05:35:45.034Z,842.00
2022-09-03T05:36:44.800Z,842.00
2022-09-03T05:37:46.050Z,843.00
2022-09-03T05:38:46.473Z,846.00
2022-09-03T05:39:46.854Z,844.00
2022-09-03T05:40:45.921Z,843.00
2022-09-03T05:41:47.088Z,843.00
2022-09-03T05:42:47.495Z,842.00
2022-09-03T05:43:47.889Z,845.00
2022-09-03T05:44:48.371Z,845.00
2022-09-03T05:45:47.924Z,847.00
2022-09-03T05:46:48.133Z,836.00
2022-09-03T05:46:56.760Z,842.00
2022-09-03T05:47:58.229Z,856.00
2022-09-03T05:48:58.633Z,858.00
2022-09-03T05:49:59.615Z,857.00
2022-09-03T05:50:59.644Z,857.00
2022-09-03T05:51:59.979Z,859.00
2022-09-03T05:53:00.310Z,859.00
2022-09-03T05:53:59.767Z,860.00
2022-09-03T05:55:01.397Z,859.00
2022-09-03T05:56:02.163Z,860.00
2022-09-03T05:57:02.116Z,859.00
2022-09-03T05:58:03.180Z,857.00
2022-09-03T05:59:03.898Z,858.00
2022-09-03T06:00:04.485Z,859.00
2022-09-03T06:01:04.974Z,857.00
2022-09-03T06:02:04.525Z,856.00
2022-09-03T06:03:04.639Z,859.00
2022-09-03T06:04:05.152Z,857.00
2022-09-03T06:05:06.943Z,855.00
2022-09-03T06:06:07.101Z,853.00
2022-09-03T06:07:07.512Z,855.00
2022-09-03T06:07:16.103Z,855.00
2022-09-03T06:08:17.825Z,856.00
2022-09-03T06:09:17.607Z,854.00
2022-09-03T06:10:22.353Z,855.00
2022-09-03T06:11:19.233Z,855.00
2022-09-03T06:12:20.171Z,853.00
2022-09-03T06:13:19.075Z,855.00
2022-09-03T06:14:19.620Z,855.00
2022-09-03T06:15:21.516Z,856.00
2022-09-03T06:16:30.841Z,853.00
2022-09-03T06:17:22.151Z,853.00
2022-09-03T06:18:23.895Z,856.00
2022-09-03T06:19:23.161Z,852.00
2022-09-03T06:20:25.257Z,841.00
2022-09-03T06:21:24.182Z,842.00
2022-09-03T06:22:24.146Z,843.00
2022-09-03T06:23:24.567Z,856.00
2022-09-03T06:24:28.054Z,858.00
2022-09-03T06:25:25.387Z,859.00
2022-09-03T06:26:26.664Z,859.00
2022-09-03T06:27:26.886Z,860.00
2022-09-03T06:28:26.739Z,859.00
2022-09-03T06:29:26.216Z,848.00
2022-09-03T06:30:27.854Z,856.00
2022-09-03T06:30:40.498Z,856.00
2022-09-03T06:31:41.354Z,853.00
2022-09-03T06:32:41.961Z,843.00
2022-09-03T06:33:42.855Z,857.00
2022-09-03T06:34:44.269Z,847.00
2022-09-03T06:35:44.749Z,855.00
2022-09-03T06:36:45.535Z,856.00
2022-09-03T06:37:45.936Z,855.00
2022-09-03T06:38:46.474Z,858.00
2022-09-03T06:39:45.868Z,859.00
2022-09-03T06:40:46.311Z,859.00
2022-09-03T06:41:47.691Z,858.00
2022-09-03T06:42:48.344Z,857.00
2022-09-03T06:43:48.795Z,855.00
2022-09-03T06:44:48.572Z,853.00
2022-09-03T06:45:50.306Z,854.00
2022-09-03T06:46:49.704Z,844.00
2022-09-03T06:47:50.860Z,853.00
2022-09-03T06:48:51.200Z,852.00
2022-09-03T06:49:51.708Z,850.00
2022-09-03T06:50:51.046Z,849.00
2022-09-03T06:51:51.744Z,849.00
2022-09-03T06:52:52.047Z,841.00
2022-09-03T06:53:02.682Z,849.00
2022-09-03T06:54:03.168Z,849.00
2022-09-03T06:55:04.139Z,849.00
2022-09-03T06:56:07.558Z,848.00
2022-09-03T06:57:05.145Z,848.00
2022-09-03T06:58:06.328Z,848.00
2022-09-03T06:59:07.857Z,848.00
2022-09-03T07:00:06.463Z,848.00
2022-09-03T07:01:08.136Z,847.00
2022-09-03T07:02:07.814Z,847.00
2022-09-03T07:03:07.827Z,847.00
2022-09-03T07:04:09.223Z,847.00
2022-09-03T07:05:09.612Z,847.00
2022-09-03T07:06:09.869Z,846.00
2022-09-03T07:07:10.271Z,846.00
2022-09-03T07:08:10.831Z,846.00
2022-09-03T07:09:11.300Z,847.00
2022-09-03T07:10:11.347Z,847.00
2022-09-03T07:11:11.003Z,846.00
2022-09-03T07:12:11.478Z,845.00
2022-09-03T07:13:11.989Z,846.00
2022-09-03T07:13:20.627Z,846.00
2022-09-03T07:14:21.892Z,846.00
2022-09-03T07:15:22.099Z,845.00
2022-09-03T07:16:22.342Z,845.00
2022-09-03T07:17:21.710Z,846.00
2022-09-03T07:18:23.063Z,845.00
2022-09-03T07:19:23.184Z,845.00
2022-09-03T07:20:22.928Z,843.00
2022-09-03T07:21:23.331Z,843.00
2022-09-03T07:22:31.281Z,844.00
2022-09-03T07:23:24.106Z,845.00
2022-09-03T07:24:24.526Z,848.00
2022-09-03T07:25:25.980Z,846.00
2022-09-03T07:26:26.413Z,847.00
2022-09-03T07:27:26.214Z,840.00
2022-09-03T07:28:26.526Z,847.00
2022-09-03T07:29:26.907Z,847.00
2022-09-03T07:30:27.664Z,847.00
2022-09-03T07:31:28.415Z,847.00
2022-09-03T07:32:29.040Z,845.00
2022-09-03T07:33:33.789Z,847.00
2022-09-03T07:34:30.230Z,847.00
2022-09-03T07:35:32.189Z,848.00
2022-09-03T07:36:35.478Z,848.00
2022-09-03T07:36:40.180Z,847.00
2022-09-03T07:37:40.650Z,848.00
2022-09-03T07:38:42.018Z,847.00
2022-09-03T07:39:42.269Z,850.00
2022-09-03T07:40:41.878Z,848.00
2022-09-03T07:41:43.631Z,846.00
2022-09-03T07:42:43.353Z,846.00
2022-09-03T07:43:43.919Z,846.00
2022-09-03T07:44:44.526Z,846.00
2022-09-03T07:45:46.215Z,846.00
2022-09-03T07:46:46.985Z,846.00
2022-09-03T07:47:46.321Z,845.00
2022-09-03T07:48:46.653Z,842.00
2022-09-03T07:49:48.736Z,833.00
2022-09-03T07:50:47.694Z,841.00
2022-09-03T07:51:48.851Z,841.00
2022-09-03T07:52:48.526Z,831.00
2022-09-03T07:53:49.547Z,841.00
2022-09-03T07:54:48.819Z,833.00
2022-09-03T07:55:50.694Z,841.00
2022-09-03T07:56:50.310Z,841.00
2022-09-03T07:57:51.988Z,844.00
2022-09-03T07:58:01.632Z,835.00
2022-09-03T07:59:02.564Z,843.00
2022-09-03T08:00:03.513Z,842.00
2022-09-03T08:01:05.444Z,843.00
2022-09-03T08:02:04.483Z,843.00
2022-09-03T08:03:05.542Z,841.00
2022-09-03T08:04:09.720Z,841.00
2022-09-03T08:05:06.109Z,831.00
2022-09-03T08:06:06.274Z,840.00
2022-09-03T08:07:08.275Z,828.00
2022-09-03T08:08:07.993Z,828.00
2022-09-03T08:09:08.683Z,826.00
2022-09-03T08:10:09.526Z,835.00
2022-09-03T08:11:10.216Z,826.00
2022-09-03T08:12:11.105Z,836.00
2022-09-03T08:13:12.888Z,826.00
2022-09-03T08:14:12.190Z,828.00
2022-09-03T08:15:14.046Z,836.00
2022-09-03T08:16:13.985Z,836.00
2022-09-03T08:17:14.781Z,840.00
2022-09-03T08:18:16.466Z,838.00
2022-09-03T08:19:16.129Z,837.00
2022-09-03T08:20:16.347Z,813.00
2022-09-03T08:21:16.355Z,836.00
2022-09-03T08:22:16.548Z,837.00
2022-09-03T08:22:26.286Z,836.00
2022-09-03T08:23:26.332Z,826.00
2022-09-03T08:24:27.209Z,829.00
2022-09-03T08:25:28.311Z,829.00
2022-09-03T08:26:28.225Z,828.00
2022-09-03T08:27:28.660Z,840.00
2022-09-03T08:28:29.672Z,829.00
2022-09-03T08:29:30.192Z,829.00
2022-09-03T08:30:30.185Z,836.00
2022-09-03T08:31:29.941Z,826.00
2022-09-03T08:32:30.357Z,840.00
2022-09-03T08:33:30.370Z,837.00
2022-09-03T08:34:31.991Z,838.00
2022-09-03T08:35:31.323Z,841.00
2022-09-03T08:36:31.837Z,842.00
2022-09-03T08:37:32.408Z,846.00
2022-09-03T08:38:33.775Z,845.00
2022-09-03T08:39:34.226Z,847.00
2022-09-03T08:40:33.861Z,848.00
2022-09-03T08:41:35.259Z,847.00
2022-09-03T08:42:35.977Z,846.00
2022-09-03T08:43:36.314Z,845.00
2022-09-03T08:43:44.972Z,845.00
2022-09-03T08:44:45.613Z,845.00
2022-09-03T08:45:46.171Z,843.00
2022-09-03T08:46:47.668Z,842.00
2022-09-03T08:47:47.408Z,842.00
2022-09-03T08:48:48.805Z,842.00
2022-09-03T08:49:49.254Z,841.00
2022-09-03T08:50:49.694Z,841.00
2022-09-03T08:51:49.990Z,841.00
2022-09-03T08:52:50.571Z,841.00
2022-09-03T08:53:51.143Z,842.00
2022-09-03T08:54:51.266Z,833.00
2022-09-03T08:55:50.936Z,842.00
2022-09-03T08:56:52.516Z,843.00
2022-09-03T08:57:52.934Z,843.00
2022-09-03T08:58:53.664Z,841.00
2022-09-03T08:59:53.722Z,841.00
2022-09-03T09:00:54.529Z,838.00
2022-09-03T09:01:54.867Z,838.00
2022-09-03T09:02:54.687Z,841.00
2022-09-03T09:03:54.604Z,840.00
2022-09-03T09:04:04.272Z,840.00
2022-09-03T09:05:05.949Z,845.00
2022-09-03T09:06:04.908Z,842.00
2022-09-03T09:07:06.152Z,835.00
2022-09-03T09:08:05.239Z,842.00
2022-09-03T09:09:05.742Z,841.00
2022-09-03T09:10:07.638Z,836.00
2022-09-03T09:11:08.079Z,835.00
2022-09-03T09:12:07.553Z,835.00
2022-09-03T09:13:09.154Z,833.00
2022-09-03T09:14:08.803Z,832.00
2022-09-03T09:15:09.472Z,832.00
2022-09-03T09:16:10.378Z,832.00
2022-09-03T09:17:11.101Z,831.00
2022-09-03T09:18:11.601Z,831.00
2022-09-03T09:19:12.037Z,831.00
2022-09-03T09:20:13.498Z,821.00
2022-09-03T09:21:17.705Z,831.00
2022-09-03T09:22:13.348Z,831.00
2022-09-03T09:23:14.953Z,822.00
2022-09-03T09:24:15.387Z,819.00
2022-09-03T09:25:16.165Z,833.00
2022-09-03T09:26:16.961Z,833.00
2022-09-03T09:26:25.583Z,833.00
2022-09-03T09:27:26.150Z,834.00
2022-09-03T09:28:27.345Z,835.00
2022-09-03T09:29:27.806Z,835.00
2022-09-03T09:30:27.137Z,834.00
2022-09-03T09:31:27.544Z,833.00
2022-09-03T09:32:27.498Z,833.00
2022-09-03T09:33:29.312Z,834.00
2022-09-03T09:34:29.189Z,834.00
2022-09-03T09:35:31.857Z,832.00
2022-09-03T09:36:31.851Z,832.00
2022-09-03T09:37:32.436Z,822.00
2022-09-03T09:38:31.656Z,832.00
2022-09-03T09:39:32.488Z,834.00
2022-09-03T09:40:33.305Z,832.00
2022-09-03T09:41:34.557Z,831.00
2022-09-03T09:42:34.803Z,829.00
2022-09-03T09:43:35.711Z,829.00
2022-09-03T09:44:36.552Z,826.00
2022-09-03T09:45:37.400Z,829.00
2022-09-03T09:46:38.383Z,826.00
2022-09-03T09:47:38.100Z,826.00
2022-09-03T09:47:46.764Z,826.00
2022-09-03T09:48:48.697Z,828.00
2022-09-03T09:49:47.870Z,826.00
2022-09-03T09:50:49.451Z,826.00
2022-09-03T09:51:50.212Z,826.00
2022-09-03T09:52:50.842Z,825.00
2022-09-03T09:53:50.574Z,826.00
2022-09-03T09:54:50.993Z,825.00
2022-09-03T09:55:52.141Z,826.00
2022-09-03T09:56:52.784Z,825.00
2022-09-03T09:57:53.298Z,825.00
2022-09-03T09:58:53.622Z,826.00
2022-09-03T09:59:54.390Z,825.00
2022-09-03T10:00:54.619Z,825.00
2022-09-03T10:01:55.591Z,825.00
2022-09-03T10:02:55.176Z,826.00
2022-09-03T10:03:55.818Z,826.00
2022-09-03T10:04:57.122Z,830.00
2022-09-03T10:05:57.591Z,834.00
2022-09-03T10:06:57.906Z,836.00
2022-09-03T10:07:07.043Z,838.00
2022-09-03T10:08:07.988Z,836.00
2022-09-03T10:09:09.931Z,834.00
2022-09-03T10:10:10.527Z,835.00
2022-09-03T10:11:10.287Z,834.00
2022-09-03T10:12:11.679Z,834.00
2022-09-03T10:13:12.350Z,836.00
2022-09-03T10:14:13.009Z,835.00
2022-09-03T10:15:13.027Z,828.00
2022-09-03T10:16:13.245Z,835.00
2022-09-03T10:17:13.719Z,835.00
2022-09-03T10:18:13.664Z,834.00
2022-09-03T10:19:14.047Z,833.00
2022-09-03T10:20:14.410Z,832.00
2022-09-03T10:21:15.651Z,832.00
2022-09-03T10:22:14.638Z,831.00
2022-09-03T10:23:16.555Z,832.00
2022-09-03T10:24:16.559Z,832.00
2022-09-03T10:25:18.854Z,823.00
2022-09-03T10:26:18.095Z,832.00
2022-09-03T10:27:18.981Z,831.00
2022-09-03T10:28:19.477Z,830.00
2022-09-03T10:29:20.321Z,821.00
2022-09-03T10:30:21.288Z,829.00
2022-09-03T10:31:22.478Z,826.00
2022-09-03T10:32:21.348Z,826.00
2022-09-03T10:33:21.936Z,828.00
2022-09-03T10:33:40.960Z,821.00
2022-09-03T10:34:42.332Z,829.00
2022-09-03T10:35:41.580Z,820.00
2022-09-03T10:36:42.057Z,829.00
2022-09-03T10:37:43.727Z,826.00
2022-09-03T10:38:43.330Z,826.00
2022-09-03T10:39:48.892Z,825.00
2022-09-03T10:40:44.409Z,825.00
2022-09-03T10:41:45.232Z,825.00
2022-09-03T10:42:46.996Z,825.00
2022-09-03T10:43:46.298Z,825.00
2022-09-03T10:44:47.599Z,825.00
2022-09-03T10:45:47.151Z,825.00
2022-09-03T10:46:48.631Z,825.00
2022-09-03T10:47:48.331Z,817.00
2022-09-03T10:48:49.715Z,823.00
2022-09-03T10:49:52.246Z,816.00
2022-09-03T10:50:49.632Z,822.00
2022-09-03T10:51:49.801Z,823.00
2022-09-03T10:52:50.128Z,823.00
2022-09-03T10:53:53.612Z,822.00
2022-09-03T10:54:51.179Z,822.00
2022-09-03T10:55:51.888Z,821.00
2022-09-03T10:56:52.582Z,821.00
2022-09-03T10:57:52.824Z,821.00
2022-09-03T10:58:01.919Z,821.00
2022-09-03T10:59:02.626Z,821.00
2022-09-03T11:00:03.273Z,820.00
2022-09-03T11:01:05.312Z,818.00
2022-09-03T11:02:04.510Z,818.00
2022-09-03T11:03:04.775Z,811.00
2022-09-03T11:04:05.209Z,819.00
2022-09-03T11:05:05.342Z,820.00
2022-09-03T11:06:05.314Z,818.00
2022-09-03T11:07:06.688Z,816.00
2022-09-03T11:08:05.951Z,816.00
2022-09-03T11:09:06.833Z,814.00
2022-09-03T11:10:07.074Z,816.00
2022-09-03T11:11:08.169Z,816.00
2022-09-03T11:12:09.077Z,816.00
2022-09-03T11:13:08.471Z,814.00
2022-09-03T11:14:09.455Z,814.00
2022-09-03T11:15:10.546Z,814.00
2022-09-03T11:16:11.175Z,813.00
2022-09-03T11:17:10.846Z,816.00
2022-09-03T11:18:10.856Z,814.00
2022-09-03T11:19:12.822Z,808.00
2022-09-03T11:20:12.122Z,813.00
2022-09-03T11:21:14.041Z,808.00
2022-09-03T11:21:23.284Z,810.00
2022-09-03T11:22:23.344Z,813.00
2022-09-03T11:23:23.918Z,813.00
2022-09-03T11:24:24.443Z,812.00
2022-09-03T11:25:26.053Z,812.00
2022-09-03T11:26:25.954Z,812.00
2022-09-03T11:27:26.289Z,811.00
2022-09-03T11:28:27.508Z,812.00
2022-09-03T11:29:27.032Z,812.00
2022-09-03T11:30:27.510Z,812.00
2022-09-03T11:31:28.757Z,812.00
2022-09-03T11:32:28.099Z,812.00
2022-09-03T11:33:28.834Z,812.00
2022-09-03T11:34:31.999Z,812.00
2022-09-03T11:35:29.445Z,812.00
2022-09-03T11:36:30.580Z,812.00
2022-09-03T11:37:30.304Z,812.00
2022-09-03T11:38:31.730Z,812.00
2022-09-03T11:39:31.648Z,814.00
2022-09-03T11:40:31.892Z,812.00
2022-09-03T11:41:32.090Z,812.00
2022-09-03T11:42:33.203Z,812.00
2022-09-03T11:43:32.777Z,812.00
2022-09-03T11:44:34.293Z,813.00
2022-09-03T11:45:34.551Z,813.00
2022-09-03T11:46:34.154Z,813.00
2022-09-03T11:46:42.685Z,813.00
2022-09-03T11:47:44.224Z,812.00
2022-09-03T11:48:44.443Z,812.00
2022-09-03T11:49:44.269Z,812.00
2022-09-03T11:50:45.539Z,812.00
2022-09-03T11:51:45.223Z,812.00
2022-09-03T11:52:46.588Z,812.00
2022-09-03T11:53:47.019Z,812.00
2022-09-03T11:54:47.349Z,812.00
2022-09-03T11:55:47.883Z,814.00
2022-09-03T11:56:48.706Z,813.00
2022-09-03T11:57:48.158Z,814.00
2022-09-03T11:58:48.396Z,816.00
2022-09-03T11:59:48.979Z,814.00
2022-09-03T12:00:49.112Z,814.00
2022-09-03T12:01:49.413Z,814.00
2022-09-03T12:02:49.850Z,816.00
2022-09-03T12:03:49.159Z,820.00
2022-09-03T12:04:50.566Z,818.00
2022-09-03T12:05:50.091Z,816.00